createdAt,value
2017-07-09T00:00:20.814Z,99.99
2017-07-09T00:01:20.804Z,99.99
2017-07-09T00:02:20.800Z,99.99
2017-07-09T00:03:20.786Z,99.99
2017-07-09T00:04:20.780Z,99.99
2017-07-09T00:05:20.781Z,99.99
2017-07-09T00:06:20.761Z,99.99
2017-07-09T00:07:20.759Z,99.99
2017-07-09T00:08:20.744Z,99.99
2017-07-09T00:09:20.742Z,99.99
2017-07-09T00:10:20.738Z,99.99
2017-07-09T00:11:20.729Z,99.99
2017-07-09T00:12:20.711Z,99.99
2017-07-09T00:13:20.701Z,99.99
2017-07-09T00:14:20.702Z,99.99
2017-07-09T00:15:20.692Z,99.99
2017-07-09T00:16:20.677Z,99.99
2017-07-09T00:17:20.680Z,99.99
2017-07-09T00:18:20.674Z,99.99
2017-07-09T00:19:20.655Z,99.99
2017-07-09T00:20:20.652Z,99.99
2017-07-09T00:21:20.644Z,99.99
2017-07-09T00:22:20.320Z,99.99
2017-07-09T00:23:20.312Z,99.99
2017-07-09T00:24:20.613Z,99.99
2017-07-09T00:25:20.603Z,99.99
2017-07-09T00:26:20.603Z,99.99
2017-07-09T00:27:20.280Z,99.99
2017-07-09T00:28:20.270Z,99.99
2017-07-09T00:29:20.580Z,99.99
2017-07-09T00:30:20.564Z,99.99
2017-07-09T00:31:20.559Z,99.99
2017-07-09T00:32:20.547Z,99.99
2017-07-09T00:33:20.539Z,99.99
2017-07-09T00:34:20.537Z,99.99
2017-07-09T00:35:20.526Z,99.99
2017-07-09T00:36:20.517Z,99.99
2017-07-09T00:37:20.199Z,99.99
2017-07-09T00:38:20.185Z,99.99
2017-07-09T00:39:20.493Z,99.99
2017-07-09T00:40:20.480Z,99.99
2017-07-09T00:41:20.471Z,99.99
2017-07-09T00:42:20.459Z,99.99
2017-07-09T00:43:20.464Z,99.99
2017-07-09T00:44:20.442Z,99.99
2017-07-09T00:45:20.439Z,99.99
2017-07-09T00:46:20.427Z,99.99
2017-07-09T00:47:20.428Z,99.99
2017-07-09T00:48:20.409Z,99.99
2017-07-09T00:49:20.399Z,99.99
2017-07-09T00:50:20.087Z,99.99
2017-07-09T00:51:20.382Z,99.99
2017-07-09T00:52:20.374Z,99.99
2017-07-09T00:53:20.364Z,99.99
2017-07-09T00:54:20.355Z,99.99
2017-07-09T00:55:20.350Z,99.99
2017-07-09T00:56:20.349Z,99.99
2017-07-09T00:57:20.336Z,99.99
2017-07-09T00:58:20.324Z,99.99
2017-07-09T00:59:20.314Z,99.99
2017-07-09T01:00:20.304Z,99.99
2017-07-09T01:01:20.297Z,99.99
2017-07-09T01:02:19.978Z,99.99
2017-07-09T01:03:20.284Z,99.99
2017-07-09T01:04:20.270Z,99.99
2017-07-09T01:05:20.277Z,99.99
2017-07-09T01:06:20.261Z,99.99
2017-07-09T01:07:20.259Z,99.99
2017-07-09T01:08:20.237Z,99.99
2017-07-09T01:09:20.232Z,99.99
2017-07-09T01:10:20.219Z,99.99
2017-07-09T01:11:20.211Z,99.99
2017-07-09T01:12:20.209Z,99.99
2017-07-09T01:13:20.203Z,99.99
2017-07-09T01:14:20.184Z,99.99
2017-07-09T01:15:20.182Z,99.99
2017-07-09T01:16:20.176Z,99.99
2017-07-09T01:17:20.171Z,99.99
2017-07-09T01:18:20.152Z,99.99
2017-07-09T01:19:20.143Z,99.99
2017-07-09T01:20:20.143Z,99.99
2017-07-09T01:21:19.819Z,99.99
2017-07-09T01:22:20.117Z,99.99
2017-07-09T01:23:19.805Z,99.99
2017-07-09T01:24:20.103Z,99.99
2017-07-09T01:25:20.098Z,99.99
2017-07-09T01:26:20.094Z,99.99
2017-07-09T01:27:20.076Z,99.99
2017-07-09T01:28:19.769Z,99.99
2017-07-09T01:29:20.066Z,99.99
2017-07-09T01:30:20.059Z,99.99
2017-07-09T01:31:20.051Z,99.99
2017-07-09T01:32:20.038Z,99.99
2017-07-09T01:33:20.035Z,99.99
2017-07-09T01:34:20.027Z,99.99
2017-07-09T01:35:20.021Z,99.99
2017-07-09T01:36:20.010Z,99.99
2017-07-09T01:37:19.997Z,99.99
2017-07-09T01:38:19.985Z,99.99
2017-07-09T01:39:19.989Z,99.99
2017-07-09T01:40:19.967Z,99.99
2017-07-09T01:41:19.968Z,99.99
2017-07-09T01:42:19.952Z,99.99
2017-07-09T01:43:19.951Z,99.99
2017-07-09T01:44:19.937Z,99.99
2017-07-09T01:45:19.935Z,99.99
2017-07-09T01:46:19.930Z,99.99
2017-07-09T01:47:19.912Z,99.99
2017-07-09T01:48:19.912Z,99.99
2017-07-09T01:49:19.903Z,99.99
2017-07-09T01:50:19.888Z,99.99
2017-07-09T01:51:19.882Z,99.99
2017-07-09T01:52:19.569Z,99.99
2017-07-09T01:53:19.864Z,99.99
2017-07-09T01:54:19.856Z,99.99
2017-07-09T01:55:19.849Z,99.99
2017-07-09T01:56:19.841Z,99.99
2017-07-09T01:57:19.840Z,99.99
2017-07-09T01:58:19.830Z,99.99
2017-07-09T01:59:19.506Z,99.99
2017-07-09T02:00:19.820Z,99.99
2017-07-09T02:01:19.802Z,99.99
2017-07-09T02:02:19.485Z,99.99
2017-07-09T02:03:19.789Z,99.99
2017-07-09T02:04:19.779Z,99.99
2017-07-09T02:05:19.775Z,99.99
2017-07-09T02:06:19.763Z,99.99
2017-07-09T02:07:19.758Z,99.99
2017-07-09T02:08:19.741Z,99.99
2017-07-09T02:09:19.739Z,99.99
2017-07-09T02:10:19.422Z,99.99
2017-07-09T02:11:19.727Z,99.99
2017-07-09T02:12:19.722Z,99.99
2017-07-09T02:13:19.706Z,99.99
2017-07-09T02:14:19.698Z,99.99
2017-07-09T02:15:19.686Z,99.99
2017-07-09T02:16:19.675Z,99.99
2017-07-09T02:17:19.674Z,99.99
2017-07-09T02:18:19.669Z,99.99
2017-07-09T02:19:19.660Z,99.99
2017-07-09T02:20:19.336Z,99.99
2017-07-09T02:21:19.639Z,99.99
2017-07-09T02:22:19.322Z,99.99
2017-07-09T02:23:19.315Z,99.99
2017-07-09T02:24:19.301Z,99.99
2017-07-09T02:25:19.609Z,99.99
2017-07-09T02:26:19.599Z,99.99
2017-07-09T02:27:19.281Z,99.99
2017-07-09T02:28:19.269Z,99.99
2017-07-09T02:29:19.575Z,99.99
2017-07-09T02:30:19.253Z,99.99
2017-07-09T02:31:19.246Z,99.99
2017-07-09T02:32:19.242Z,99.99
2017-07-09T02:33:19.553Z,99.99
2017-07-09T02:34:19.537Z,99.99
2017-07-09T02:35:19.523Z,99.99
2017-07-09T02:36:19.519Z,99.99
2017-07-09T02:37:19.505Z,99.99
2017-07-09T02:38:19.503Z,99.99
2017-07-09T02:39:19.494Z,99.99
2017-07-09T02:40:19.480Z,99.99
2017-07-09T02:41:19.477Z,99.99
2017-07-09T02:42:19.155Z,99.99
2017-07-09T02:43:19.147Z,99.99
2017-07-09T02:44:19.449Z,99.99
2017-07-09T02:45:19.445Z,99.99
2017-07-09T02:46:19.432Z,99.99
2017-07-09T02:47:19.424Z,99.99
2017-07-09T02:48:19.420Z,99.99
2017-07-09T02:49:19.407Z,99.99
2017-07-09T02:50:19.407Z,99.99
2017-07-09T02:51:19.388Z,99.99
2017-07-09T02:52:19.383Z,99.99
2017-07-09T02:53:19.380Z,99.99
2017-07-09T02:54:19.364Z,99.99
2017-07-09T02:55:19.360Z,99.99
2017-07-09T02:56:19.356Z,99.99
2017-07-09T02:57:19.350Z,99.99
2017-07-09T02:58:19.340Z,99.99
2017-07-09T02:59:19.332Z,99.99
2017-07-09T03:00:19.317Z,99.99
2017-07-09T03:01:19.307Z,99.99
2017-07-09T03:02:19.306Z,99.99
2017-07-09T03:03:19.290Z,99.99
2017-07-09T03:04:19.291Z,99.99
2017-07-09T03:05:19.279Z,99.99
2017-07-09T03:06:19.273Z,99.99
2017-07-09T03:07:19.259Z,99.99
2017-07-09T03:08:19.252Z,99.99
2017-07-09T03:09:19.252Z,99.99
2017-07-09T03:10:19.233Z,99.99
2017-07-09T03:11:19.234Z,99.99
2017-07-09T03:12:19.224Z,99.99
2017-07-09T03:13:19.209Z,99.99
2017-07-09T03:14:19.209Z,99.99
2017-07-09T03:15:19.194Z,99.99
2017-07-09T03:16:19.193Z,99.99
2017-07-09T03:17:18.870Z,99.99
2017-07-09T03:18:19.170Z,99.99
2017-07-09T03:19:19.169Z,99.99
2017-07-09T03:20:19.155Z,99.99
2017-07-09T03:21:19.155Z,99.99
2017-07-09T03:22:18.831Z,99.99
2017-07-09T03:23:18.825Z,99.99
2017-07-09T03:24:19.127Z,99.99
2017-07-09T03:25:19.119Z,99.99
2017-07-09T03:26:19.110Z,99.99
2017-07-09T03:27:18.789Z,99.99
2017-07-09T03:28:19.090Z,99.99
2017-07-09T03:29:19.082Z,99.99
2017-07-09T03:30:19.076Z,99.99
2017-07-09T03:31:19.071Z,99.99
2017-07-09T03:32:19.055Z,99.99
2017-07-09T03:33:19.048Z,99.99
2017-07-09T03:34:19.045Z,99.99
2017-07-09T03:35:19.033Z,99.99
2017-07-09T03:36:19.024Z,99.99
2017-07-09T03:37:19.022Z,99.99
2017-07-09T03:38:19.005Z,99.99
2017-07-09T03:39:19.007Z,99.99
2017-07-09T03:40:18.998Z,99.99
2017-07-09T03:41:18.989Z,99.99
2017-07-09T03:42:18.974Z,99.99
2017-07-09T03:43:18.982Z,99.99
2017-07-09T03:44:18.958Z,99.99
2017-07-09T03:45:18.640Z,99.99
2017-07-09T03:46:18.947Z,99.99
2017-07-09T03:47:18.932Z,99.99
2017-07-09T03:48:18.617Z,99.99
2017-07-09T03:49:18.920Z,99.99
2017-07-09T03:50:18.914Z,99.99
2017-07-09T03:51:18.905Z,99.99
2017-07-09T03:52:18.896Z,99.99
2017-07-09T03:53:18.574Z,99.99
2017-07-09T03:54:18.881Z,99.99
2017-07-09T03:55:18.873Z,99.99
2017-07-09T03:56:18.859Z,99.99
2017-07-09T03:57:18.854Z,99.99
2017-07-09T03:58:18.845Z,99.99
2017-07-09T03:59:18.525Z,99.99
2017-07-09T04:00:18.834Z,99.99
2017-07-09T04:01:18.823Z,99.99
2017-07-09T04:02:18.809Z,99.99
2017-07-09T04:03:18.799Z,99.99
2017-07-09T04:04:18.800Z,99.99
2017-07-09T04:05:18.783Z,99.99
2017-07-09T04:06:18.776Z,99.99
2017-07-09T04:07:18.768Z,99.99
2017-07-09T04:08:18.756Z,99.99
2017-07-09T04:09:18.759Z,99.99
2017-07-09T04:10:18.740Z,99.99
2017-07-09T04:11:18.430Z,99.99
2017-07-09T04:12:18.416Z,99.99
2017-07-09T04:13:18.717Z,99.99
2017-07-09T04:14:18.405Z,99.99
2017-07-09T04:15:18.397Z,99.99
2017-07-09T04:16:18.689Z,99.99
2017-07-09T04:17:18.681Z,99.99
2017-07-09T04:18:18.367Z,99.99
2017-07-09T04:19:18.361Z,99.99
2017-07-09T04:20:18.348Z,99.99
2017-07-09T04:21:18.338Z,99.99
2017-07-09T04:22:18.643Z,99.99
2017-07-09T04:23:18.640Z,99.99
2017-07-09T04:24:18.629Z,99.99
2017-07-09T04:25:18.309Z,99.99
2017-07-09T04:26:18.297Z,99.99
2017-07-09T04:27:18.295Z,99.99
2017-07-09T04:28:18.599Z,99.99
2017-07-09T04:29:18.587Z,99.99
2017-07-09T04:30:18.601Z,99.99
2017-07-09T04:31:18.253Z,99.99
2017-07-09T04:32:18.555Z,99.99
2017-07-09T04:33:18.548Z,99.99
2017-07-09T04:34:18.539Z,99.99
2017-07-09T04:35:18.527Z,99.99
2017-07-09T04:36:18.519Z,99.99
2017-07-09T04:37:32.403Z,99.99
2017-07-09T04:38:18.507Z,99.99
2017-07-09T04:39:18.501Z,99.99
2017-07-09T04:40:18.483Z,99.99
2017-07-09T04:41:18.370Z,99.99
2017-07-09T04:42:18.474Z,99.99
2017-07-09T04:43:18.460Z,99.99
2017-07-09T04:44:18.456Z,99.99
2017-07-09T04:45:18.440Z,99.99
2017-07-09T04:46:18.436Z,99.99
2017-07-09T04:47:18.430Z,99.99
2017-07-09T04:48:18.414Z,99.99
2017-07-09T04:49:18.409Z,99.99
2017-07-09T04:50:18.404Z,99.99
2017-07-09T04:51:18.402Z,99.99
2017-07-09T04:52:18.107Z,99.99
2017-07-09T04:53:18.374Z,99.99
2017-07-09T04:54:18.372Z,99.99
2017-07-09T04:55:18.053Z,99.99
2017-07-09T04:56:18.355Z,99.99
2017-07-09T04:57:18.347Z,99.99
2017-07-09T04:58:18.341Z,99.99
2017-07-09T04:59:18.337Z,99.99
2017-07-09T05:00:18.324Z,99.99
2017-07-09T05:01:18.319Z,99.99
2017-07-09T05:02:18.309Z,99.99
2017-07-09T05:03:18.307Z,99.99
2017-07-09T05:04:18.304Z,99.99
2017-07-09T05:05:18.299Z,99.99
2017-07-09T05:06:18.284Z,99.99
2017-07-09T05:07:18.275Z,99.99
2017-07-09T05:08:18.271Z,99.99
2017-07-09T05:09:18.271Z,99.99
2017-07-09T05:10:18.255Z,99.99
2017-07-09T05:11:18.258Z,99.99
2017-07-09T05:12:18.243Z,99.99
2017-07-09T05:13:17.929Z,99.99
2017-07-09T05:14:18.241Z,99.99
2017-07-09T05:15:17.914Z,99.99
2017-07-09T05:16:18.425Z,99.99
2017-07-09T05:17:18.214Z,99.99
2017-07-09T05:18:18.212Z,99.99
2017-07-09T05:19:17.887Z,99.99
2017-07-09T05:20:18.196Z,99.99
2017-07-09T05:21:18.183Z,99.99
2017-07-09T05:22:18.178Z,99.99
2017-07-09T05:23:17.860Z,99.99
2017-07-09T05:24:18.165Z,99.99
2017-07-09T05:25:18.157Z,99.99
2017-07-09T05:26:17.839Z,99.99
2017-07-09T05:27:18.151Z,99.99
2017-07-09T05:28:18.144Z,99.99
2017-07-09T05:29:18.138Z,99.99
2017-07-09T05:30:18.129Z,99.99
2017-07-09T05:31:18.116Z,99.99
2017-07-09T05:32:18.117Z,99.99
2017-07-09T05:33:18.104Z,99.99
2017-07-09T05:34:18.100Z,99.99
2017-07-09T05:35:18.085Z,99.99
2017-07-09T05:36:18.082Z,99.99
2017-07-09T05:37:17.763Z,99.99
2017-07-09T05:38:18.072Z,99.99
2017-07-09T05:39:18.060Z,99.99
2017-07-09T05:40:18.117Z,99.99
2017-07-09T05:41:18.049Z,99.99
2017-07-09T05:42:18.049Z,99.99
2017-07-09T05:43:18.036Z,99.99
2017-07-09T05:44:18.032Z,99.99
2017-07-09T05:45:18.020Z,99.99
2017-07-09T05:46:18.005Z,99.99
2017-07-09T05:47:18.001Z,99.99
2017-07-09T05:48:18.003Z,99.99
2017-07-09T05:49:17.989Z,99.99
2017-07-09T05:50:17.976Z,99.99
2017-07-09T05:51:17.972Z,99.99
2017-07-09T05:52:17.965Z,99.99
2017-07-09T05:53:17.955Z,99.99
2017-07-09T05:54:31.585Z,99.99
2017-07-09T05:55:17.627Z,99.99
2017-07-09T05:56:17.934Z,99.99
2017-07-09T05:57:17.923Z,99.99
2017-07-09T05:58:17.911Z,99.99
2017-07-09T05:59:17.907Z,99.99
2017-07-09T06:00:17.902Z,99.99
2017-07-09T06:01:17.895Z,99.99
2017-07-09T06:02:17.878Z,99.99
2017-07-09T06:03:17.871Z,99.99
2017-07-09T06:04:17.866Z,99.99
2017-07-09T06:05:17.853Z,99.99
2017-07-09T06:06:17.857Z,99.99
2017-07-09T06:07:17.848Z,99.99
2017-07-09T06:08:17.836Z,99.99
2017-07-09T06:09:17.822Z,99.99
2017-07-09T06:10:17.819Z,99.99
2017-07-09T06:11:17.805Z,99.99
2017-07-09T06:12:17.802Z,99.99
2017-07-09T06:13:17.795Z,99.99
2017-07-09T06:14:17.786Z,99.99
2017-07-09T06:15:17.776Z,99.99
2017-07-09T06:16:17.454Z,99.99
2017-07-09T06:17:17.762Z,99.99
2017-07-09T06:18:17.434Z,99.99
2017-07-09T06:19:17.739Z,99.99
2017-07-09T06:20:17.728Z,99.99
2017-07-09T06:21:17.719Z,99.99
2017-07-09T06:22:17.399Z,99.99
2017-07-09T06:23:17.391Z,99.99
2017-07-09T06:24:17.698Z,99.99
2017-07-09T06:25:17.887Z,99.99
2017-07-09T06:26:17.683Z,99.99
2017-07-09T06:27:17.615Z,99.99
2017-07-09T06:28:17.656Z,99.99
2017-07-09T06:29:17.650Z,99.99
2017-07-09T06:30:17.644Z,99.99
2017-07-09T06:31:17.326Z,99.99
2017-07-09T06:32:17.847Z,99.99
2017-07-09T06:33:17.831Z,99.99
2017-07-09T06:34:17.612Z,99.99
2017-07-09T06:35:17.593Z,99.99
2017-07-09T06:36:17.276Z,99.99
2017-07-09T06:37:17.780Z,99.99
2017-07-09T06:38:17.565Z,99.99
2017-07-09T06:39:17.561Z,99.99
2017-07-09T06:40:17.547Z,99.99
2017-07-09T06:41:17.540Z,99.99
2017-07-09T06:42:17.535Z,99.99
2017-07-09T06:43:17.526Z,99.99
2017-07-09T06:44:17.519Z,99.99
2017-07-09T06:45:17.506Z,99.99
2017-07-09T06:46:17.504Z,99.99
2017-07-09T06:47:17.484Z,99.99
2017-07-09T06:48:17.483Z,99.99
2017-07-09T06:49:17.500Z,99.99
2017-07-09T06:50:17.464Z,99.99
2017-07-09T06:51:17.452Z,99.99
2017-07-09T06:52:17.439Z,99.99
2017-07-09T06:53:17.436Z,99.99
2017-07-09T06:54:17.425Z,99.99
2017-07-09T06:55:17.415Z,99.99
2017-07-09T06:56:17.404Z,99.99
2017-07-09T06:57:17.401Z,99.99
2017-07-09T06:58:17.379Z,99.99
2017-07-09T06:59:17.376Z,99.99
2017-07-09T07:00:17.364Z,99.99
2017-07-09T07:01:17.364Z,99.99
2017-07-09T07:02:17.350Z,99.99
2017-07-09T07:03:17.333Z,99.99
2017-07-09T07:04:17.327Z,99.99
2017-07-09T07:05:17.314Z,99.99
2017-07-09T07:06:17.314Z,99.99
2017-07-09T07:07:17.296Z,99.99
2017-07-09T07:08:16.980Z,99.99
2017-07-09T07:09:16.970Z,99.99
2017-07-09T07:10:17.278Z,99.99
2017-07-09T07:11:16.958Z,99.99
2017-07-09T07:12:17.259Z,99.75
2017-07-09T07:13:17.248Z,99.99
2017-07-09T07:14:16.935Z,99.8
2017-07-09T07:15:17.232Z,99.99
2017-07-09T07:16:17.216Z,99.6
2017-07-09T07:17:17.214Z,99.6
2017-07-09T07:18:17.207Z,99.41
2017-07-09T07:19:17.194Z,99.6
2017-07-09T07:20:17.189Z,99.99
2017-07-09T07:21:17.173Z,99.99
2017-07-09T07:22:16.862Z,99.99
2017-07-09T07:23:16.846Z,99.99
2017-07-09T07:24:17.149Z,99.99
2017-07-09T07:25:17.150Z,99.99
2017-07-09T07:26:17.135Z,99.75
2017-07-09T07:27:17.123Z,99.37
2017-07-09T07:28:17.123Z,99.46
2017-07-09T07:29:17.107Z,99.32
2017-07-09T07:30:16.796Z,99.42
2017-07-09T07:31:17.100Z,99.04
2017-07-09T07:32:17.091Z,99.13
2017-07-09T07:33:17.077Z,98.99
2017-07-09T07:34:17.071Z,98.71
2017-07-09T07:35:17.059Z,99.18
2017-07-09T07:36:17.059Z,99.47
2017-07-09T07:37:17.046Z,99.71
2017-07-09T07:38:16.733Z,99.85
2017-07-09T07:39:17.032Z,99.95
2017-07-09T07:40:17.022Z,99.52
2017-07-09T07:41:17.018Z,99.71
2017-07-09T07:42:17.014Z,99.71
2017-07-09T07:43:17.002Z,99.37
2017-07-09T07:44:16.996Z,99.47
2017-07-09T07:45:16.990Z,98.99
2017-07-09T07:46:16.986Z,98.85
2017-07-09T07:47:16.664Z,98.57
2017-07-09T07:48:16.976Z,98.99
2017-07-09T07:49:16.966Z,98.94
2017-07-09T07:50:16.651Z,98.71
2017-07-09T07:51:16.957Z,98.28
2017-07-09T07:52:16.632Z,97.8
2017-07-09T07:53:16.946Z,98.81
2017-07-09T07:54:16.948Z,99.14
2017-07-09T07:55:16.923Z,99.9
2017-07-09T07:56:16.923Z,99.99
2017-07-09T07:57:16.908Z,99.76
2017-07-09T07:58:16.911Z,99.99
2017-07-09T07:59:16.897Z,99.95
2017-07-09T08:00:16.893Z,99.43
2017-07-09T08:01:16.890Z,99.19
2017-07-09T08:02:16.883Z,98.95
2017-07-09T08:03:16.566Z,98.95
2017-07-09T08:04:16.869Z,99.19
2017-07-09T08:05:16.861Z,98.9
2017-07-09T08:06:16.852Z,99.1
2017-07-09T08:07:16.537Z,99.57
2017-07-09T08:08:16.850Z,99.43
2017-07-09T08:09:16.835Z,99.99
2017-07-09T08:10:16.833Z,99.99
2017-07-09T08:11:16.517Z,99.99
2017-07-09T08:12:16.508Z,99.99
2017-07-09T08:13:16.809Z,99.99
2017-07-09T08:14:16.803Z,99.99
2017-07-09T08:15:16.796Z,99.99
2017-07-09T08:16:16.790Z,99.99
2017-07-09T08:17:16.781Z,99.99
2017-07-09T08:18:16.472Z,99.99
2017-07-09T08:19:16.779Z,99.99
2017-07-09T08:20:16.767Z,99.99
2017-07-09T08:21:16.761Z,99.99
2017-07-09T08:22:16.442Z,99.99
2017-07-09T08:23:16.436Z,99.99
2017-07-09T08:24:16.736Z,99.99
2017-07-09T08:25:16.426Z,99.99
2017-07-09T08:26:16.418Z,99.99
2017-07-09T08:27:16.719Z,99.99
2017-07-09T08:28:16.725Z,99.99
2017-07-09T08:29:16.401Z,99.99
2017-07-09T08:30:16.393Z,99.99
2017-07-09T08:31:16.694Z,99.99
2017-07-09T08:32:16.691Z,99.99
2017-07-09T08:33:16.688Z,99.99
2017-07-09T08:34:16.683Z,99.99
2017-07-09T08:35:16.670Z,99.99
2017-07-09T08:36:16.671Z,99.99
2017-07-09T08:37:16.352Z,99.99
2017-07-09T08:38:16.342Z,99.99
2017-07-09T08:39:16.337Z,99.99
2017-07-09T08:40:16.334Z,99.99
2017-07-09T08:41:16.325Z,99.99
2017-07-09T08:42:16.323Z,99.99
2017-07-09T08:43:16.626Z,99.99
2017-07-09T08:44:16.614Z,99.99
2017-07-09T08:45:16.614Z,99.99
2017-07-09T08:46:16.604Z,99.99
2017-07-09T08:47:16.596Z,99.99
2017-07-09T08:48:16.587Z,99.99
2017-07-09T08:49:16.583Z,99.99
2017-07-09T08:50:16.578Z,99.99
2017-07-09T08:51:16.569Z,99.99
2017-07-09T08:52:16.567Z,99.99
2017-07-09T08:53:16.561Z,99.99
2017-07-09T08:54:16.549Z,99.99
2017-07-09T08:55:16.550Z,99.99
2017-07-09T08:56:16.233Z,99.99
2017-07-09T08:57:16.528Z,99.99
2017-07-09T08:58:16.533Z,99.99
2017-07-09T08:59:16.520Z,99.99
2017-07-09T09:00:16.512Z,99.99
2017-07-09T09:01:16.199Z,99.99
2017-07-09T09:02:16.505Z,99.99
2017-07-09T09:03:16.498Z,99.99
2017-07-09T09:04:16.494Z,99.99
2017-07-09T09:05:16.480Z,99.99
2017-07-09T09:06:16.470Z,99.99
2017-07-09T09:07:16.504Z,99.99
2017-07-09T09:08:16.469Z,99.99
2017-07-09T09:09:16.457Z,99.99
2017-07-09T09:10:16.146Z,99.99
2017-07-09T09:11:16.448Z,99.99
2017-07-09T09:12:16.439Z,99.99
2017-07-09T09:13:16.430Z,99.99
2017-07-09T09:14:16.434Z,99.99
2017-07-09T09:15:16.427Z,99.99
2017-07-09T09:16:16.415Z,99.99
2017-07-09T09:17:16.408Z,99.99
2017-07-09T09:18:16.408Z,99.99
2017-07-09T09:19:16.400Z,99.99
2017-07-09T09:20:16.399Z,99.99
2017-07-09T09:21:16.387Z,99.99
2017-07-09T09:22:16.073Z,99.99
2017-07-09T09:23:16.375Z,99.99
2017-07-09T09:24:16.370Z,99.99
2017-07-09T09:25:16.365Z,99.99
2017-07-09T09:26:16.356Z,99.99
2017-07-09T09:27:16.354Z,99.99
2017-07-09T09:28:16.346Z,99.99
2017-07-09T09:29:16.340Z,99.99
2017-07-09T09:30:16.336Z,99.99
2017-07-09T09:31:16.338Z,99.99
2017-07-09T09:32:16.322Z,99.99
2017-07-09T09:33:16.325Z,99.99
2017-07-09T09:34:16.312Z,99.99
2017-07-09T09:35:16.307Z,99.99
2017-07-09T09:36:16.306Z,99.99
2017-07-09T09:37:16.293Z,99.99
2017-07-09T09:38:15.977Z,99.99
2017-07-09T09:39:16.281Z,99.99
2017-07-09T09:40:16.275Z,99.99
2017-07-09T09:41:15.962Z,99.99
2017-07-09T09:42:15.953Z,99.99
2017-07-09T09:43:16.254Z,99.99
2017-07-09T09:44:16.251Z,99.99
2017-07-09T09:45:16.245Z,99.99
2017-07-09T09:46:16.234Z,99.99
2017-07-09T09:47:16.233Z,99.99
2017-07-09T09:48:16.219Z,99.99
2017-07-09T09:49:16.216Z,99.99
2017-07-09T09:50:16.214Z,99.99
2017-07-09T09:51:16.205Z,99.99
2017-07-09T09:52:16.201Z,99.99
2017-07-09T09:53:16.182Z,99.99
2017-07-09T09:54:16.177Z,99.99
2017-07-09T09:55:16.178Z,99.99
2017-07-09T09:56:15.859Z,99.99
2017-07-09T09:57:16.155Z,99.99
2017-07-09T09:58:15.843Z,99.99
2017-07-09T09:59:15.836Z,99.99
2017-07-09T10:00:16.134Z,99.99
2017-07-09T10:01:16.137Z,99.99
2017-07-09T10:02:16.122Z,99.99
2017-07-09T10:03:15.803Z,99.99
2017-07-09T10:04:16.107Z,99.99
2017-07-09T10:05:15.790Z,99.99
2017-07-09T10:06:15.788Z,99.99
2017-07-09T10:07:16.092Z,99.99
2017-07-09T10:08:15.770Z,99.99
2017-07-09T10:09:16.077Z,99.99
2017-07-09T10:10:16.069Z,99.99
2017-07-09T10:11:16.066Z,99.99
2017-07-09T10:12:15.737Z,99.99
2017-07-09T10:13:16.045Z,99.99
2017-07-09T10:14:16.038Z,99.99
2017-07-09T10:15:16.032Z,99.99
2017-07-09T10:16:16.023Z,99.99
2017-07-09T10:17:16.022Z,99.99
2017-07-09T10:18:16.010Z,99.99
2017-07-09T10:19:16.010Z,99.99
2017-07-09T10:20:15.995Z,99.99
2017-07-09T10:21:15.672Z,99.99
2017-07-09T10:22:15.664Z,99.99
2017-07-09T10:23:15.658Z,99.99
2017-07-09T10:24:15.969Z,99.99
2017-07-09T10:25:15.967Z,99.99
2017-07-09T10:26:15.645Z,99.99
2017-07-09T10:27:15.945Z,99.99
2017-07-09T10:28:15.938Z,99.99
2017-07-09T10:29:15.932Z,99.99
2017-07-09T10:30:15.915Z,99.99
2017-07-09T10:31:15.909Z,99.99
2017-07-09T10:32:15.906Z,99.99
2017-07-09T10:33:15.901Z,99.99
2017-07-09T10:34:15.896Z,99.99
2017-07-09T10:35:15.882Z,99.99
2017-07-09T10:36:15.891Z,99.99
2017-07-09T10:37:15.871Z,99.99
2017-07-09T10:38:15.873Z,99.99
2017-07-09T10:39:15.861Z,99.99
2017-07-09T10:40:15.851Z,99.99
2017-07-09T10:41:15.535Z,99.99
2017-07-09T10:42:15.842Z,99.99
2017-07-09T10:43:15.833Z,99.99
2017-07-09T10:44:15.826Z,99.99
2017-07-09T10:45:15.820Z,99.99
2017-07-09T10:46:15.815Z,99.99
2017-07-09T10:47:15.800Z,99.99
2017-07-09T10:48:15.794Z,99.99
2017-07-09T10:49:15.792Z,99.99
2017-07-09T10:50:15.787Z,99.99
2017-07-09T10:51:15.784Z,99.99
2017-07-09T10:52:15.780Z,99.99
2017-07-09T10:53:15.770Z,99.99
2017-07-09T10:54:15.446Z,99.99
2017-07-09T10:55:15.755Z,99.99
2017-07-09T10:56:15.753Z,99.99
2017-07-09T10:57:15.746Z,99.99
2017-07-09T10:58:15.741Z,99.99
2017-07-09T10:59:15.742Z,99.99
2017-07-09T11:00:15.733Z,99.99
2017-07-09T11:01:15.719Z,99.99
2017-07-09T11:02:15.717Z,99.99
2017-07-09T11:03:15.703Z,99.99
2017-07-09T11:04:15.706Z,99.99
2017-07-09T11:05:15.702Z,99.99
2017-07-09T11:06:15.380Z,99.99
2017-07-09T11:07:15.698Z,99.99
2017-07-09T11:08:15.683Z,99.99
2017-07-09T11:09:15.680Z,99.99
2017-07-09T11:10:15.667Z,99.99
2017-07-09T11:11:15.662Z,99.99
2017-07-09T11:12:15.355Z,99.99
2017-07-09T11:13:15.660Z,99.99
2017-07-09T11:14:15.655Z,99.99
2017-07-09T11:15:15.643Z,99.99
2017-07-09T11:16:15.647Z,99.99
2017-07-09T11:17:15.642Z,99.99
2017-07-09T11:18:15.641Z,99.99
2017-07-09T11:19:15.630Z,99.99
2017-07-09T11:20:15.631Z,99.99
2017-07-09T11:21:15.625Z,99.99
2017-07-09T11:22:15.622Z,99.99
2017-07-09T11:23:15.308Z,99.99
2017-07-09T11:24:15.612Z,99.99
2017-07-09T11:25:15.300Z,99.99
2017-07-09T11:26:15.601Z,99.99
2017-07-09T11:27:15.602Z,99.99
2017-07-09T11:28:15.594Z,99.99
2017-07-09T11:29:15.590Z,99.99
2017-07-09T11:30:15.279Z,99.99
2017-07-09T11:31:15.593Z,99.99
2017-07-09T11:32:15.587Z,99.99
2017-07-09T11:33:15.574Z,99.99
2017-07-09T11:34:15.269Z,99.99
2017-07-09T11:35:15.264Z,99.99
2017-07-09T11:36:15.256Z,99.99
2017-07-09T11:37:15.564Z,99.99
2017-07-09T11:38:15.251Z,99.99
2017-07-09T11:39:15.251Z,99.99
2017-07-09T11:40:15.241Z,99.99
2017-07-09T11:41:15.550Z,99.99
2017-07-09T11:42:15.542Z,99.99
2017-07-09T11:43:15.538Z,99.99
2017-07-09T11:44:15.545Z,99.99
2017-07-09T11:45:15.531Z,99.99
2017-07-09T11:46:15.531Z,99.99
2017-07-09T11:47:15.519Z,99.99
2017-07-09T11:48:15.519Z,99.99
2017-07-09T11:49:15.512Z,99.99
2017-07-09T11:50:15.510Z,99.99
2017-07-09T11:51:15.505Z,99.99
2017-07-09T11:52:15.508Z,99.99
2017-07-09T11:53:15.192Z,99.99
2017-07-09T11:54:15.498Z,99.99
2017-07-09T11:55:15.498Z,99.99
2017-07-09T11:56:15.491Z,99.99
2017-07-09T11:57:15.484Z,99.99
2017-07-09T11:58:15.481Z,99.99
2017-07-09T11:59:15.478Z,99.99
2017-07-09T12:00:15.482Z,99.99
2017-07-09T12:01:15.462Z,99.99
2017-07-09T12:02:15.459Z,99.99
2017-07-09T12:03:15.459Z,99.99
2017-07-09T12:04:15.449Z,99.99
2017-07-09T12:05:15.443Z,99.99
2017-07-09T12:06:15.442Z,99.99
2017-07-09T12:07:15.441Z,99.99
2017-07-09T12:08:15.441Z,99.99
2017-07-09T12:09:15.435Z,99.99
2017-07-09T12:10:15.433Z,99.99
2017-07-09T12:11:15.422Z,99.99
2017-07-09T12:12:15.106Z,99.99
2017-07-09T12:13:15.414Z,99.99
2017-07-09T12:14:15.409Z,99.99
2017-07-09T12:15:15.405Z,99.99
2017-07-09T12:16:15.407Z,99.99
2017-07-09T12:17:15.092Z,99.99
2017-07-09T12:18:15.402Z,99.99
2017-07-09T12:19:15.391Z,99.99
2017-07-09T12:20:15.391Z,99.99
2017-07-09T12:21:15.391Z,99.99
2017-07-09T12:22:15.383Z,99.99
2017-07-09T12:23:15.381Z,99.99
2017-07-09T12:24:15.373Z,99.99
2017-07-09T12:25:15.068Z,99.99
2017-07-09T12:26:15.376Z,99.99
2017-07-09T12:27:15.371Z,99.99
2017-07-09T12:28:15.371Z,99.99
2017-07-09T12:29:15.368Z,99.99
2017-07-09T12:30:15.356Z,99.99
2017-07-09T12:31:15.357Z,99.99
2017-07-09T12:32:15.048Z,99.99
2017-07-09T12:33:15.356Z,99.99
2017-07-09T12:34:15.646Z,99.68
2017-07-09T12:35:15.346Z,99.99
2017-07-09T12:36:15.037Z,99.73
2017-07-09T12:37:15.338Z,99.73
2017-07-09T12:38:15.345Z,99.98
2017-07-09T12:39:15.385Z,99.58
2017-07-09T12:40:15.336Z,99.73
2017-07-09T12:41:15.325Z,99.99
2017-07-09T12:42:15.325Z,99.68
2017-07-09T12:43:15.329Z,99.92
2017-07-09T12:44:15.322Z,99.99
2017-07-09T12:45:15.323Z,99.99
2017-07-09T12:46:15.318Z,99.99
2017-07-09T12:47:15.317Z,99.99
2017-07-09T12:48:15.312Z,99.99
2017-07-09T12:49:15.311Z,99.99
2017-07-09T12:50:15.306Z,99.99
2017-07-09T12:51:15.307Z,99.99
2017-07-09T12:52:15.303Z,99.99